sensor_id;sensor_type;location;lat;lon;timestamp;temperature;humidity
19862;DHT22;10093;48.148;8.542;2023-12-04T00:01:25;-7.30;99.90
19862;DHT22;10093;48.148;8.542;2023-12-04T00:04:05;-7.50;99.90
19862;DHT22;10093;48.148;8.542;2023-12-04T00:06:30;-7.30;99.90
19862;DHT22;10093;48.148;8.542;2023-12-04T00:08:59;-7.30;99.90
19862;DHT22;10093;48.148;8.542;2023-12-04T00:11:27;-7.50;99.90
19862;DHT22;10093;48.148;8.542;2023-12-04T00:13:56;-7.60;99.90
19862;DHT22;10093;48.148;8.542;2023-12-04T00:16:24;-7.60;99.90
19862;DHT22;10093;48.148;8.542;2023-12-04T00:18:49;-7.90;99.90
19862;DHT22;10093;48.148;8.542;2023-12-04T00:21:21;-7.80;99.90
19862;DHT22;10093;48.148;8.542;2023-12-04T00:23:56;-7.70;99.90
19862;DHT22;10093;48.148;8.542;2023-12-04T00:26:30;-7.50;99.90
19862;DHT22;10093;48.148;8.542;2023-12-04T00:28:56;-7.50;99.90
19862;DHT22;10093;48.148;8.542;2023-12-04T00:31:21;-7.40;99.90
19862;DHT22;10093;48.148;8.542;2023-12-04T00:33:47;-7.40;99.90
19862;DHT22;10093;48.148;8.542;2023-12-04T00:36:23;-7.30;99.90
19862;DHT22;10093;48.148;8.542;2023-12-04T00:38:58;-7.30;99.90
19862;DHT22;10093;48.148;8.542;2023-12-04T00:41:23;-7.30;99.90
19862;DHT22;10093;48.148;8.542;2023-12-04T00:43:52;-7.20;99.90
19862;DHT22;10093;48.148;8.542;2023-12-04T00:46:21;-7.20;99.90
19862;DHT22;10093;48.148;8.542;2023-12-04T00:49:07;-7.30;99.90
19862;DHT22;10093;48.148;8.542;2023-12-04T00:51:38;-7.20;99.90
19862;DHT22;10093;48.148;8.542;2023-12-04T00:54:16;-7.10;99.90
19862;DHT22;10093;48.148;8.542;2023-12-04T00:56:45;-7.10;99.90
19862;DHT22;10093;48.148;8.542;2023-12-04T00:59:10;-7.10;99.90
19862;DHT22;10093;48.148;8.542;2023-12-04T01:01:50;-6.90;99.90
19862;DHT22;10093;48.148;8.542;2023-12-04T01:04:24;-6.60;99.90
19862;DHT22;10093;48.148;8.542;2023-12-04T01:06:56;-6.40;99.90
19862;DHT22;10093;48.148;8.542;2023-12-04T01:09:27;-6.30;99.90
19862;DHT22;10093;48.148;8.542;2023-12-04T01:12:02;-6.30;99.90
19862;DHT22;10093;48.148;8.542;2023-12-04T01:14:29;-6.40;99.90
19862;DHT22;10093;48.148;8.542;2023-12-04T01:17:01;-6.30;99.90
19862;DHT22;10093;48.148;8.542;2023-12-04T01:19:38;-6.20;99.90
19862;DHT22;10093;48.148;8.542;2023-12-04T01:22:16;-6.30;99.90
19862;DHT22;10093;48.148;8.542;2023-12-04T01:24:41;-6.10;99.90
19862;DHT22;10093;48.148;8.542;2023-12-04T01:27:27;-6.00;99.90
19862;DHT22;10093;48.148;8.542;2023-12-04T01:29:55;-6.10;99.90
19862;DHT22;10093;48.148;8.542;2023-12-04T01:32:21;-6.30;99.90
19862;DHT22;10093;48.148;8.542;2023-12-04T01:34:49;-6.60;99.90
19862;DHT22;10093;48.148;8.542;2023-12-04T01:37:20;-6.90;99.90
19862;DHT22;10093;48.148;8.542;2023-12-04T01:39:58;-6.90;99.90
19862;DHT22;10093;48.148;8.542;2023-12-04T01:42:49;-6.90;99.90
19862;DHT22;10093;48.148;8.542;2023-12-04T01:45:21;-6.90;99.90
19862;DHT22;10093;48.148;8.542;2023-12-04T01:47:46;-7.00;99.90
19862;DHT22;10093;48.148;8.542;2023-12-04T01:50:15;-6.90;99.90
19862;DHT22;10093;48.148;8.542;2023-12-04T01:52:44;-6.90;99.90
19862;DHT22;10093;48.148;8.542;2023-12-04T01:55:21;-6.60;99.90
19862;DHT22;10093;48.148;8.542;2023-12-04T01:57:53;-6.60;99.90
19862;DHT22;10093;48.148;8.542;2023-12-04T02:00:31;-6.40;99.90
19862;DHT22;10093;48.148;8.542;2023-12-04T02:02:59;-6.40;99.90
19862;DHT22;10093;48.148;8.542;2023-12-04T02:05:36;-6.40;99.90
19862;DHT22;10093;48.148;8.542;2023-12-04T02:08:10;-6.40;99.90
19862;DHT22;10093;48.148;8.542;2023-12-04T02:11:02;-6.20;99.90
19862;DHT22;10093;48.148;8.542;2023-12-04T02:13:31;-6.10;99.90
19862;DHT22;10093;48.148;8.542;2023-12-04T02:16:03;-6.00;99.90
19862;DHT22;10093;48.148;8.542;2023-12-04T02:19:01;-6.00;99.90
19862;DHT22;10093;48.148;8.542;2023-12-04T02:21:30;-5.90;99.90
19862;DHT22;10093;48.148;8.542;2023-12-04T02:27:15;-6.00;99.90
19862;DHT22;10093;48.148;8.542;2023-12-04T02:30:05;-6.10;99.90
19862;DHT22;10093;48.148;8.542;2023-12-04T02:32:36;-6.50;99.90
19862;DHT22;10093;48.148;8.542;2023-12-04T02:35:09;-6.60;99.90
19862;DHT22;10093;48.148;8.542;2023-12-04T02:37:55;-6.70;99.90
19862;DHT22;10093;48.148;8.542;2023-12-04T02:40:21;-6.80;99.90
19862;DHT22;10093;48.148;8.542;2023-12-04T02:43:05;-6.90;99.90
19862;DHT22;10093;48.148;8.542;2023-12-04T02:45:54;-7.00;99.90
19862;DHT22;10093;48.148;8.542;2023-12-04T02:48:43;-7.00;99.90
19862;DHT22;10093;48.148;8.542;2023-12-04T02:51:20;-7.10;99.90
19862;DHT22;10093;48.148;8.542;2023-12-04T02:53:46;-7.10;99.90
19862;DHT22;10093;48.148;8.542;2023-12-04T02:56:19;-7.10;99.90
19862;DHT22;10093;48.148;8.542;2023-12-04T02:59:04;-7.00;99.90
19862;DHT22;10093;48.148;8.542;2023-12-04T03:01:35;-6.90;99.90
19862;DHT22;10093;48.148;8.542;2023-12-04T03:04:24;-6.90;99.90
19862;DHT22;10093;48.148;8.542;2023-12-04T03:06:55;-6.90;99.90
19862;DHT22;10093;48.148;8.542;2023-12-04T03:09:42;-7.00;99.90
19862;DHT22;10093;48.148;8.542;2023-12-04T03:12:23;-7.00;99.90
19862;DHT22;10093;48.148;8.542;2023-12-04T03:17:25;-6.90;99.90
19862;DHT22;10093;48.148;8.542;2023-12-04T03:19:59;-6.90;99.90
19862;DHT22;10093;48.148;8.542;2023-12-04T03:22:28;-6.80;99.90
19862;DHT22;10093;48.148;8.542;2023-12-04T03:24:55;-6.70;99.90
19862;DHT22;10093;48.148;8.542;2023-12-04T03:27:42;-6.60;99.90
19862;DHT22;10093;48.148;8.542;2023-12-04T03:30:18;-6.30;99.90
19862;DHT22;10093;48.148;8.542;2023-12-04T03:33:15;-6.00;99.90
19862;DHT22;10093;48.148;8.542;2023-12-04T03:35:44;-5.80;99.90
19862;DHT22;10093;48.148;8.542;2023-12-04T03:38:10;-5.70;99.90
19862;DHT22;10093;48.148;8.542;2023-12-04T03:40:41;-5.60;99.90
19862;DHT22;10093;48.148;8.542;2023-12-04T03:43:10;-5.50;99.90
19862;DHT22;10093;48.148;8.542;2023-12-04T03:45:43;-5.50;99.90
19862;DHT22;10093;48.148;8.542;2023-12-04T03:48:26;-5.50;99.90
19862;DHT22;10093;48.148;8.542;2023-12-04T03:50:55;-5.40;99.90
19862;DHT22;10093;48.148;8.542;2023-12-04T03:53:26;-5.40;99.90
19862;DHT22;10093;48.148;8.542;2023-12-04T03:56:18;-5.40;99.90
19862;DHT22;10093;48.148;8.542;2023-12-04T03:58:53;-5.40;99.90
19862;DHT22;10093;48.148;8.542;2023-12-04T04:01:21;-5.40;99.90
19862;DHT22;10093;48.148;8.542;2023-12-04T04:03:47;-5.50;99.90
19862;DHT22;10093;48.148;8.542;2023-12-04T04:06:13;-5.50;99.90
19862;DHT22;10093;48.148;8.542;2023-12-04T04:08:41;-5.60;99.90
19862;DHT22;10093;48.148;8.542;2023-12-04T04:11:20;-5.60;99.90
19862;DHT22;10093;48.148;8.542;2023-12-04T04:14:04;-5.70;99.90
19862;DHT22;10093;48.148;8.542;2023-12-04T04:16:55;-5.70;99.90
19862;DHT22;10093;48.148;8.542;2023-12-04T04:19:26;-5.70;99.90
19862;DHT22;10093;48.148;8.542;2023-12-04T04:22:03;-5.70;99.90
19862;DHT22;10093;48.148;8.542;2023-12-04T04:24:35;-5.90;99.90
19862;DHT22;10093;48.148;8.542;2023-12-04T04:27:10;-6.00;99.90
19862;DHT22;10093;48.148;8.542;2023-12-04T04:29:58;-6.00;99.90
19862;DHT22;10093;48.148;8.542;2023-12-04T04:32:24;-6.00;99.90
19862;DHT22;10093;48.148;8.542;2023-12-04T04:37:53;-6.00;99.90
19862;DHT22;10093;48.148;8.542;2023-12-04T04:40:36;-6.00;99.90
19862;DHT22;10093;48.148;8.542;2023-12-04T04:43:03;-5.90;99.90
19862;DHT22;10093;48.148;8.542;2023-12-04T04:45:37;-5.70;99.90
19862;DHT22;10093;48.148;8.542;2023-12-04T04:48:03;-5.80;99.90
19862;DHT22;10093;48.148;8.542;2023-12-04T04:50:55;-5.60;99.90
19862;DHT22;10093;48.148;8.542;2023-12-04T04:53:32;-5.60;99.90
19862;DHT22;10093;48.148;8.542;2023-12-04T04:56:08;-5.50;99.90
19862;DHT22;10093;48.148;8.542;2023-12-04T04:58:42;-5.30;99.90
19862;DHT22;10093;48.148;8.542;2023-12-04T05:01:08;-5.30;99.90
19862;DHT22;10093;48.148;8.542;2023-12-04T05:03:42;-5.20;99.90
19862;DHT22;10093;48.148;8.542;2023-12-04T05:06:17;-5.30;99.90
19862;DHT22;10093;48.148;8.542;2023-12-04T05:08:58;-5.20;99.90
19862;DHT22;10093;48.148;8.542;2023-12-04T05:11:26;-5.20;99.90
19862;DHT22;10093;48.148;8.542;2023-12-04T05:14:15;-5.30;99.90
19862;DHT22;10093;48.148;8.542;2023-12-04T05:16:49;-5.30;99.90
19862;DHT22;10093;48.148;8.542;2023-12-04T05:19:14;-5.40;99.90
19862;DHT22;10093;48.148;8.542;2023-12-04T05:21:40;-5.50;99.90
19862;DHT22;10093;48.148;8.542;2023-12-04T05:24:05;-5.40;99.90
19862;DHT22;10093;48.148;8.542;2023-12-04T05:26:54;-5.40;99.90
19862;DHT22;10093;48.148;8.542;2023-12-04T05:29:33;-5.40;99.90
19862;DHT22;10093;48.148;8.542;2023-12-04T05:32:19;-5.60;99.90
19862;DHT22;10093;48.148;8.542;2023-12-04T05:35:08;-5.50;99.90
19862;DHT22;10093;48.148;8.542;2023-12-04T05:37:39;-5.70;99.90
19862;DHT22;10093;48.148;8.542;2023-12-04T05:40:08;-5.60;99.90
19862;DHT22;10093;48.148;8.542;2023-12-04T05:42:39;-5.60;99.90
19862;DHT22;10093;48.148;8.542;2023-12-04T05:48:40;-5.70;99.90
19862;DHT22;10093;48.148;8.542;2023-12-04T05:51:38;-5.70;99.90
19862;DHT22;10093;48.148;8.542;2023-12-04T05:54:23;-5.80;99.90
19862;DHT22;10093;48.148;8.542;2023-12-04T05:56:49;-5.90;99.90
19862;DHT22;10093;48.148;8.542;2023-12-04T05:59:29;-5.80;99.90
19862;DHT22;10093;48.148;8.542;2023-12-04T06:01:55;-5.90;99.90
19862;DHT22;10093;48.148;8.542;2023-12-04T06:04:23;-5.90;99.90
19862;DHT22;10093;48.148;8.542;2023-12-04T06:06:49;-6.00;99.90
19862;DHT22;10093;48.148;8.542;2023-12-04T06:09:17;-6.00;99.90
19862;DHT22;10093;48.148;8.542;2023-12-04T06:11:51;-6.10;99.90
19862;DHT22;10093;48.148;8.542;2023-12-04T06:14:17;-6.00;99.90
19862;DHT22;10093;48.148;8.542;2023-12-04T06:16:42;-6.00;99.90
19862;DHT22;10093;48.148;8.542;2023-12-04T06:19:31;-6.00;99.90
19862;DHT22;10093;48.148;8.542;2023-12-04T06:22:23;-6.10;99.90
19862;DHT22;10093;48.148;8.542;2023-12-04T06:25:00;-6.10;99.90
19862;DHT22;10093;48.148;8.542;2023-12-04T06:27:31;-6.00;99.90
19862;DHT22;10093;48.148;8.542;2023-12-04T06:30:04;-6.10;99.90
19862;DHT22;10093;48.148;8.542;2023-12-04T06:32:30;-6.10;99.90
19862;DHT22;10093;48.148;8.542;2023-12-04T06:35:25;-6.10;99.90
19862;DHT22;10093;48.148;8.542;2023-12-04T06:38:17;-6.10;99.90
19862;DHT22;10093;48.148;8.542;2023-12-04T06:40:50;-6.10;99.90
19862;DHT22;10093;48.148;8.542;2023-12-04T06:43:31;-6.20;99.90
19862;DHT22;10093;48.148;8.542;2023-12-04T08:51:22;-3.50;99.90
19862;DHT22;10093;48.148;8.542;2023-12-04T08:54:01;-3.50;99.90
19862;DHT22;10093;48.148;8.542;2023-12-04T08:56:28;-3.40;99.90
19862;DHT22;10093;48.148;8.542;2023-12-04T08:59:14;-3.40;99.90
19862;DHT22;10093;48.148;8.542;2023-12-04T09:01:51;-3.40;99.90
19862;DHT22;10093;48.148;8.542;2023-12-04T09:04:30;-3.30;99.90
19862;DHT22;10093;48.148;8.542;2023-12-04T09:07:04;-3.20;99.90
19862;DHT22;10093;48.148;8.542;2023-12-04T09:09:35;-3.10;99.90
19862;DHT22;10093;48.148;8.542;2023-12-04T09:12:12;-3.20;99.90
19862;DHT22;10093;48.148;8.542;2023-12-04T09:14:41;-3.30;99.90
19862;DHT22;10093;48.148;8.542;2023-12-04T09:17:30;-3.40;99.90
19862;DHT22;10093;48.148;8.542;2023-12-04T09:20:04;-3.50;99.90
19862;DHT22;10093;48.148;8.542;2023-12-04T09:22:42;-3.50;99.90
19862;DHT22;10093;48.148;8.542;2023-12-04T09:25:30;-3.40;99.90
19862;DHT22;10093;48.148;8.542;2023-12-04T09:28:25;-3.40;99.90
19862;DHT22;10093;48.148;8.542;2023-12-04T09:33:36;-3.30;99.90
19862;DHT22;10093;48.148;8.542;2023-12-04T09:36:40;-3.20;99.90
19862;DHT22;10093;48.148;8.542;2023-12-04T09:39:37;-3.00;99.90
19862;DHT22;10093;48.148;8.542;2023-12-04T09:45:04;-2.30;99.90
19862;DHT22;10093;48.148;8.542;2023-12-04T09:48:09;-2.10;99.90
19862;DHT22;10093;48.148;8.542;2023-12-04T09:50:43;-2.00;99.90
19862;DHT22;10093;48.148;8.542;2023-12-04T09:53:12;-2.30;99.90
19862;DHT22;10093;48.148;8.542;2023-12-04T09:56:46;-2.20;99.90
19862;DHT22;10093;48.148;8.542;2023-12-04T10:02:17;-2.10;99.90
19862;DHT22;10093;48.148;8.542;2023-12-04T10:05:09;-1.80;99.90
19862;DHT22;10093;48.148;8.542;2023-12-04T10:07:40;-1.90;99.90
19862;DHT22;10093;48.148;8.542;2023-12-04T10:10:09;-2.40;99.90
19862;DHT22;10093;48.148;8.542;2023-12-04T10:13:01;-2.60;99.90
19862;DHT22;10093;48.148;8.542;2023-12-04T10:15:49;-2.30;99.90
19862;DHT22;10093;48.148;8.542;2023-12-04T10:18:39;-2.10;99.90
19862;DHT22;10093;48.148;8.542;2023-12-04T10:21:11;-1.70;99.90
19862;DHT22;10093;48.148;8.542;2023-12-04T10:24:08;-1.90;99.90
19862;DHT22;10093;48.148;8.542;2023-12-04T10:27:11;-2.00;99.90
19862;DHT22;10093;48.148;8.542;2023-12-04T10:29:52;-2.30;99.90
19862;DHT22;10093;48.148;8.542;2023-12-04T10:32:44;-2.00;99.90
19862;DHT22;10093;48.148;8.542;2023-12-04T10:35:15;-2.20;99.90
19862;DHT22;10093;48.148;8.542;2023-12-04T10:38:05;-2.20;99.90
19862;DHT22;10093;48.148;8.542;2023-12-04T10:40:53;-1.80;99.90
19862;DHT22;10093;48.148;8.542;2023-12-04T10:46:14;-0.90;99.90
19862;DHT22;10093;48.148;8.542;2023-12-04T10:48:50;-0.40;99.90
19862;DHT22;10093;48.148;8.542;2023-12-04T10:51:17;0.10;99.90
19862;DHT22;10093;48.148;8.542;2023-12-04T10:53:50;0.50;99.90
19862;DHT22;10093;48.148;8.542;2023-12-04T10:56:39;0.80;99.90
19862;DHT22;10093;48.148;8.542;2023-12-04T10:59:28;0.80;99.90
19862;DHT22;10093;48.148;8.542;2023-12-04T11:02:07;0.50;99.90
19862;DHT22;10093;48.148;8.542;2023-12-04T11:04:50;0.40;99.90
19862;DHT22;10093;48.148;8.542;2023-12-04T11:07:19;0.50;99.90
19862;DHT22;10093;48.148;8.542;2023-12-04T11:09:52;0.50;99.90
19862;DHT22;10093;48.148;8.542;2023-12-04T11:12:25;0.50;99.90
19862;DHT22;10093;48.148;8.542;2023-12-04T11:15:16;0.70;99.90
19862;DHT22;10093;48.148;8.542;2023-12-04T11:17:54;1.00;99.90
19862;DHT22;10093;48.148;8.542;2023-12-04T11:20:41;0.70;99.90
19862;DHT22;10093;48.148;8.542;2023-12-04T11:23:32;0.60;99.90
19862;DHT22;10093;48.148;8.542;2023-12-04T11:26:03;0.80;99.90
19862;DHT22;10093;48.148;8.542;2023-12-04T11:28:32;1.20;99.90
19862;DHT22;10093;48.148;8.542;2023-12-04T11:31:02;1.20;99.90
19862;DHT22;10093;48.148;8.542;2023-12-04T11:33:40;0.70;99.90
19862;DHT22;10093;48.148;8.542;2023-12-04T11:36:15;0.60;99.90
19862;DHT22;10093;48.148;8.542;2023-12-04T11:38:48;0.30;99.90
19862;DHT22;10093;48.148;8.542;2023-12-04T11:41:24;0.30;99.90
19862;DHT22;10093;48.148;8.542;2023-12-04T11:43:59;0.30;99.90
19862;DHT22;10093;48.148;8.542;2023-12-04T11:46:43;0.30;99.90
19862;DHT22;10093;48.148;8.542;2023-12-04T11:52:04;0.10;99.90
19862;DHT22;10093;48.148;8.542;2023-12-04T11:54:59;-0.20;99.90
19862;DHT22;10093;48.148;8.542;2023-12-04T11:57:39;-0.50;99.90
19862;DHT22;10093;48.148;8.542;2023-12-04T12:00:26;-0.30;99.90
19862;DHT22;10093;48.148;8.542;2023-12-04T12:03:17;-0.20;99.90
19862;DHT22;10093;48.148;8.542;2023-12-04T12:05:49;-0.70;99.90
19862;DHT22;10093;48.148;8.542;2023-12-04T12:08:15;-0.60;99.90
19862;DHT22;10093;48.148;8.542;2023-12-04T12:10:40;-0.60;99.90
19862;DHT22;10093;48.148;8.542;2023-12-04T12:13:29;-0.20;99.90
19862;DHT22;10093;48.148;8.542;2023-12-04T12:15:54;0.00;99.90
19862;DHT22;10093;48.148;8.542;2023-12-04T12:18:27;0.20;99.90
19862;DHT22;10093;48.148;8.542;2023-12-04T12:20:57;0.50;99.90
19862;DHT22;10093;48.148;8.542;2023-12-04T12:23:41;0.50;99.90
19862;DHT22;10093;48.148;8.542;2023-12-04T12:26:07;0.40;99.90
19862;DHT22;10093;48.148;8.542;2023-12-04T12:28:39;0.30;99.90
19862;DHT22;10093;48.148;8.542;2023-12-04T12:31:20;0.30;99.90
19862;DHT22;10093;48.148;8.542;2023-12-04T12:33:58;0.20;99.90
19862;DHT22;10093;48.148;8.542;2023-12-04T12:36:36;0.20;99.90
19862;DHT22;10093;48.148;8.542;2023-12-04T12:39:05;0.00;99.90
19862;DHT22;10093;48.148;8.542;2023-12-04T12:41:33;0.00;99.90
19862;DHT22;10093;48.148;8.542;2023-12-04T12:45:09;-0.10;99.90
19862;DHT22;10093;48.148;8.542;2023-12-04T12:47:19;-0.10;99.90
19862;DHT22;10093;48.148;8.542;2023-12-04T12:49:50;-0.20;99.90
19862;DHT22;10093;48.148;8.542;2023-12-04T12:52:19;-0.20;99.90
19862;DHT22;10093;48.148;8.542;2023-12-04T12:54:56;-0.20;99.90
19862;DHT22;10093;48.148;8.542;2023-12-04T12:57:48;-0.20;99.90
19862;DHT22;10093;48.148;8.542;2023-12-04T13:00:14;-0.20;99.90
19862;DHT22;10093;48.148;8.542;2023-12-04T13:03:09;-0.20;99.90
19862;DHT22;10093;48.148;8.542;2023-12-04T13:05:34;-0.20;99.90
19862;DHT22;10093;48.148;8.542;2023-12-04T13:08:00;-0.40;99.90
19862;DHT22;10093;48.148;8.542;2023-12-04T13:10:52;-0.30;99.90
19862;DHT22;10093;48.148;8.542;2023-12-04T13:13:20;-0.20;99.90
19862;DHT22;10093;48.148;8.542;2023-12-04T13:18:49;-0.10;99.90
19862;DHT22;10093;48.148;8.542;2023-12-04T13:21:15;-0.10;99.90
19862;DHT22;10093;48.148;8.542;2023-12-04T13:23:43;-0.20;99.90
19862;DHT22;10093;48.148;8.542;2023-12-04T13:26:09;-0.40;99.90
19862;DHT22;10093;48.148;8.542;2023-12-04T13:29:09;-0.30;99.90
19862;DHT22;10093;48.148;8.542;2023-12-04T13:31:41;-0.40;99.90
19862;DHT22;10093;48.148;8.542;2023-12-04T13:34:32;-0.60;99.90
19862;DHT22;10093;48.148;8.542;2023-12-04T13:36:58;-0.40;99.90
19862;DHT22;10093;48.148;8.542;2023-12-04T13:39:44;-0.20;99.90
19862;DHT22;10093;48.148;8.542;2023-12-04T13:45:57;0.10;99.90
19862;DHT22;10093;48.148;8.542;2023-12-04T13:48:22;0.10;99.90
19862;DHT22;10093;48.148;8.542;2023-12-04T13:51:02;-0.10;99.90
19862;DHT22;10093;48.148;8.542;2023-12-04T13:53:33;-0.10;99.90
19862;DHT22;10093;48.148;8.542;2023-12-04T13:56:05;0.00;99.90
19862;DHT22;10093;48.148;8.542;2023-12-04T13:58:47;-0.30;99.90
19862;DHT22;10093;48.148;8.542;2023-12-04T14:01:17;-0.30;99.90
19862;DHT22;10093;48.148;8.542;2023-12-04T14:03:54;-0.20;99.90
19862;DHT22;10093;48.148;8.542;2023-12-04T14:06:27;-0.40;99.90
19862;DHT22;10093;48.148;8.542;2023-12-04T14:08:56;-0.40;99.90
19862;DHT22;10093;48.148;8.542;2023-12-04T14:11:32;-0.50;99.90
19862;DHT22;10093;48.148;8.542;2023-12-04T14:14:03;-0.50;99.90
19862;DHT22;10093;48.148;8.542;2023-12-04T14:16:52;-0.50;99.90
19862;DHT22;10093;48.148;8.542;2023-12-04T14:19:36;-0.50;99.90
19862;DHT22;10093;48.148;8.542;2023-12-04T14:22:04;-0.60;99.90
19862;DHT22;10093;48.148;8.542;2023-12-04T14:24:35;-0.90;99.90
19862;DHT22;10093;48.148;8.542;2023-12-04T14:27:07;-1.00;99.90
19862;DHT22;10093;48.148;8.542;2023-12-04T14:29:38;-0.80;99.90
19862;DHT22;10093;48.148;8.542;2023-12-04T14:32:27;-0.60;99.90
19862;DHT22;10093;48.148;8.542;2023-12-04T14:35:04;-0.80;99.90
19862;DHT22;10093;48.148;8.542;2023-12-04T14:37:34;-0.70;99.90
19862;DHT22;10093;48.148;8.542;2023-12-04T14:40:23;-0.50;99.90
19862;DHT22;10093;48.148;8.542;2023-12-04T14:42:52;-0.60;99.90
19862;DHT22;10093;48.148;8.542;2023-12-04T14:45:20;-0.60;99.90
19862;DHT22;10093;48.148;8.542;2023-12-04T14:47:57;-0.70;99.90
19862;DHT22;10093;48.148;8.542;2023-12-04T14:50:26;-0.80;99.90
19862;DHT22;10093;48.148;8.542;2023-12-04T14:53:35;-1.00;99.90
19862;DHT22;10093;48.148;8.542;2023-12-04T14:56:36;-0.90;99.90
19862;DHT22;10093;48.148;8.542;2023-12-04T14:59:08;-0.60;99.90
19862;DHT22;10093;48.148;8.542;2023-12-04T15:01:42;-0.80;99.90
19862;DHT22;10093;48.148;8.542;2023-12-04T15:04:54;-0.70;99.90
19862;DHT22;10093;48.148;8.542;2023-12-04T15:07:52;-0.70;99.90
19862;DHT22;10093;48.148;8.542;2023-12-04T15:10:23;-0.80;99.90
19862;DHT22;10093;48.148;8.542;2023-12-04T15:13:15;-0.90;99.90
19862;DHT22;10093;48.148;8.542;2023-12-04T15:16:16;-0.90;99.90
19862;DHT22;10093;48.148;8.542;2023-12-04T15:19:05;-1.00;99.90
19862;DHT22;10093;48.148;8.542;2023-12-04T15:21:43;-1.00;99.90
19862;DHT22;10093;48.148;8.542;2023-12-04T15:24:09;-1.00;99.90
19862;DHT22;10093;48.148;8.542;2023-12-04T15:26:34;-0.90;99.90
19862;DHT22;10093;48.148;8.542;2023-12-04T15:29:00;-0.90;99.90
19862;DHT22;10093;48.148;8.542;2023-12-04T15:31:26;-0.80;99.90
19862;DHT22;10093;48.148;8.542;2023-12-04T15:33:52;-0.80;99.90
19862;DHT22;10093;48.148;8.542;2023-12-04T15:36:17;-0.80;99.90
19862;DHT22;10093;48.148;8.542;2023-12-04T15:38:47;-0.80;99.90
19862;DHT22;10093;48.148;8.542;2023-12-04T15:41:13;-0.90;99.90
19862;DHT22;10093;48.148;8.542;2023-12-04T15:43:38;-0.80;99.90
19862;DHT22;10093;48.148;8.542;2023-12-04T15:46:04;-0.90;99.90
19862;DHT22;10093;48.148;8.542;2023-12-04T15:48:31;-0.90;99.90
19862;DHT22;10093;48.148;8.542;2023-12-04T15:50:57;-0.90;99.90
19862;DHT22;10093;48.148;8.542;2023-12-04T15:53:22;-1.00;99.90
19862;DHT22;10093;48.148;8.542;2023-12-04T15:55:48;-0.90;99.90
19862;DHT22;10093;48.148;8.542;2023-12-04T15:58:14;-0.90;99.90
19862;DHT22;10093;48.148;8.542;2023-12-04T16:00:39;-0.80;99.90
19862;DHT22;10093;48.148;8.542;2023-12-04T16:03:05;-0.80;99.90
19862;DHT22;10093;48.148;8.542;2023-12-04T16:05:30;-0.80;99.90
19862;DHT22;10093;48.148;8.542;2023-12-04T16:07:57;-0.70;99.90
19862;DHT22;10093;48.148;8.542;2023-12-04T16:10:23;-0.70;99.90
19862;DHT22;10093;48.148;8.542;2023-12-04T16:12:48;-0.70;99.90
19862;DHT22;10093;48.148;8.542;2023-12-04T16:15:14;-0.70;99.90
19862;DHT22;10093;48.148;8.542;2023-12-04T16:17:42;-0.70;99.90
19862;DHT22;10093;48.148;8.542;2023-12-04T16:20:08;-0.80;99.90
19862;DHT22;10093;48.148;8.542;2023-12-04T16:22:38;-0.80;99.90
19862;DHT22;10093;48.148;8.542;2023-12-04T16:25:06;-0.80;99.90
19862;DHT22;10093;48.148;8.542;2023-12-04T16:27:32;-0.80;99.90
19862;DHT22;10093;48.148;8.542;2023-12-04T16:29:58;-0.90;99.90
19862;DHT22;10093;48.148;8.542;2023-12-04T16:32:24;-0.80;99.90
19862;DHT22;10093;48.148;8.542;2023-12-04T16:34:50;-0.80;99.90
19862;DHT22;10093;48.148;8.542;2023-12-04T16:37:16;-0.80;99.90
19862;DHT22;10093;48.148;8.542;2023-12-04T16:39:41;-0.80;99.90
19862;DHT22;10093;48.148;8.542;2023-12-04T16:42:07;-0.80;99.90
19862;DHT22;10093;48.148;8.542;2023-12-04T16:44:33;-0.70;99.90
19862;DHT22;10093;48.148;8.542;2023-12-04T16:46:58;-0.70;99.90
19862;DHT22;10093;48.148;8.542;2023-12-04T16:49:24;-0.70;99.90
19862;DHT22;10093;48.148;8.542;2023-12-04T16:51:50;-0.70;99.90
19862;DHT22;10093;48.148;8.542;2023-12-04T16:54:17;-0.60;99.90
19862;DHT22;10093;48.148;8.542;2023-12-04T16:56:43;-0.60;99.90
19862;DHT22;10093;48.148;8.542;2023-12-04T16:59:08;-0.60;99.90
19862;DHT22;10093;48.148;8.542;2023-12-04T17:01:34;-0.60;99.90
19862;DHT22;10093;48.148;8.542;2023-12-04T17:04:00;-0.60;99.90
19862;DHT22;10093;48.148;8.542;2023-12-04T17:06:26;-0.60;99.90
19862;DHT22;10093;48.148;8.542;2023-12-04T17:08:53;-0.70;99.90
19862;DHT22;10093;48.148;8.542;2023-12-04T17:11:19;-0.60;99.90
19862;DHT22;10093;48.148;8.542;2023-12-04T17:13:45;-0.70;99.90
19862;DHT22;10093;48.148;8.542;2023-12-04T17:16:11;-0.70;99.90
19862;DHT22;10093;48.148;8.542;2023-12-04T17:18:36;-0.70;99.90
19862;DHT22;10093;48.148;8.542;2023-12-04T17:21:03;-0.70;99.90
19862;DHT22;10093;48.148;8.542;2023-12-04T17:23:28;-0.80;99.90
19862;DHT22;10093;48.148;8.542;2023-12-04T17:25:54;-0.90;99.90
19862;DHT22;10093;48.148;8.542;2023-12-04T17:28:20;-0.80;99.90
19862;DHT22;10093;48.148;8.542;2023-12-04T17:30:46;-0.80;99.90
19862;DHT22;10093;48.148;8.542;2023-12-04T17:33:12;-0.80;99.90
19862;DHT22;10093;48.148;8.542;2023-12-04T17:35:38;-0.70;99.90
19862;DHT22;10093;48.148;8.542;2023-12-04T17:38:03;-0.80;99.90
19862;DHT22;10093;48.148;8.542;2023-12-04T17:40:30;-0.80;99.90
19862;DHT22;10093;48.148;8.542;2023-12-04T17:42:56;-0.90;99.90
19862;DHT22;10093;48.148;8.542;2023-12-04T17:45:22;-0.90;99.90
19862;DHT22;10093;48.148;8.542;2023-12-04T17:47:48;-0.90;99.90
19862;DHT22;10093;48.148;8.542;2023-12-04T17:50:14;-1.00;99.90
19862;DHT22;10093;48.148;8.542;2023-12-04T17:52:39;-0.90;99.90
19862;DHT22;10093;48.148;8.542;2023-12-04T17:55:07;-0.80;99.90
19862;DHT22;10093;48.148;8.542;2023-12-04T17:57:33;-0.60;99.90
19862;DHT22;10093;48.148;8.542;2023-12-04T17:59:59;-0.70;99.90
19862;DHT22;10093;48.148;8.542;2023-12-04T18:02:25;-0.70;99.90
19862;DHT22;10093;48.148;8.542;2023-12-04T18:04:51;-0.60;99.90
19862;DHT22;10093;48.148;8.542;2023-12-04T18:07:25;-0.70;99.90
19862;DHT22;10093;48.148;8.542;2023-12-04T18:09:51;-0.80;99.90
19862;DHT22;10093;48.148;8.542;2023-12-04T18:12:17;-0.70;99.90
19862;DHT22;10093;48.148;8.542;2023-12-04T18:14:43;-0.70;99.90
19862;DHT22;10093;48.148;8.542;2023-12-04T18:17:08;-0.80;99.90
19862;DHT22;10093;48.148;8.542;2023-12-04T18:19:34;-0.80;99.90
19862;DHT22;10093;48.148;8.542;2023-12-04T18:21:59;-0.70;99.90
19862;DHT22;10093;48.148;8.542;2023-12-04T18:24:33;-0.60;99.90
19862;DHT22;10093;48.148;8.542;2023-12-04T18:26:59;-0.70;99.90
19862;DHT22;10093;48.148;8.542;2023-12-04T18:29:25;-0.70;99.90
19862;DHT22;10093;48.148;8.542;2023-12-04T18:31:50;-0.60;99.90
19862;DHT22;10093;48.148;8.542;2023-12-04T18:34:16;-0.60;99.90
19862;DHT22;10093;48.148;8.542;2023-12-04T18:36:43;-0.70;99.90
19862;DHT22;10093;48.148;8.542;2023-12-04T18:39:12;-0.80;99.90
19862;DHT22;10093;48.148;8.542;2023-12-04T18:41:40;-0.80;99.90
19862;DHT22;10093;48.148;8.542;2023-12-04T18:44:06;-0.70;99.90
19862;DHT22;10093;48.148;8.542;2023-12-04T18:46:33;-0.70;99.90
19862;DHT22;10093;48.148;8.542;2023-12-04T18:49:00;-0.60;99.90
19862;DHT22;10093;48.148;8.542;2023-12-04T18:51:25;-0.60;99.90
19862;DHT22;10093;48.148;8.542;2023-12-04T18:53:51;-0.60;99.90
19862;DHT22;10093;48.148;8.542;2023-12-04T18:56:17;-0.50;99.90